Time;durP1;ratioP1;P1;durP2;ratioP2;P2;SDS_P1;SDS_P2;PMS_P1;PMS_P2;Temp;Humidity;BMP_temperature;BMP_pressure;BME280_temperature;BME280_humidity;BME280_pressure;Samples;Min_cycle;Max_cycle;Signal;HPM_P1;HPM_P2
2023/08/30 00:10:28;;;;;;;1.27;0.50;;;;;;;;;;4920277;28;20046;-85
2023/08/30 00:13:26;;;;;;;0.20;0.20;;;;;;;;;;5019147;28;20033;-85
2023/08/30 00:16:23;;;;;;;0.30;0.15;;;;;;;;;;5017291;28;20057;-86
2023/08/30 00:40:13;;;;;;;0.30;0.20;;;;;;;;;;4980864;28;20490;-86
2023/08/30 00:43:11;;;;;;;0.20;0.10;;;;;;;;;;4980233;28;20061;-86
2023/08/30 00:46:27;;;;;;;0.35;0.30;;;;;;;;;;5006753;28;20125;-86
2023/08/30 00:49:56;;;;;;;1.00;0.47;;;;;;;;;;4984922;28;20586;-86
2023/08/30 00:52:21;;;;;;;0.95;0.40;;;;;;;;;;4995908;28;20219;-85
2023/08/30 00:54:51;;;;;;;0.20;0.10;;;;;;;;;;4962127;28;20534;-86
2023/08/30 00:58:16;;;;;;;0.45;0.45;;;;;;;;;;5004093;28;20056;-86
2023/08/30 01:01:07;;;;;;;;;;;;;;;;;;;;;
2023/08/30 01:04:27;;;;;;;;;;;;;;;;;;;;;
2023/08/30 01:07:27;;;;;;;0.20;0.10;;;;;;;;;;5019544;28;20047;-86
2023/08/30 01:10:14;;;;;;;0.20;0.00;;;;;;;;;;5007044;28;20132;-87
2023/08/30 01:20:22;;;;;;;0.40;0.30;;;;;;;;;;4978748;28;20045;-86
2023/08/30 01:44:37;;;;;;;0.22;0.22;;;;;;;;;;5057649;28;20409;-87
2023/08/30 01:54:19;;;;;;;0.30;0.20;;;;;;;;;;4979352;28;19926;-89
2023/08/30 01:57:10;;;;;;;0.40;0.40;;;;;;;;;;4957885;28;20038;-86
2023/08/30 02:15:45;;;;;;;0.20;0.10;;;;;;;;;;5044203;28;20717;-85
2023/08/30 02:18:17;;;;;;;0.20;0.10;;;;;;;;;;5023948;28;20048;-86
2023/08/30 02:20:59;;;;;;;;;;;;;;;;;;;;;
2023/08/30 02:23:25;;;;;;;0.20;0.03;;;;;;;;;;5055753;22;20020;-79
2023/08/30 02:25:51;;;;;;;0.20;0.00;;;;;;;;;;5071627;28;20044;-80
2023/08/30 02:28:17;;;;;;;0.20;0.10;;;;;;;;;;5076246;28;20032;-80
2023/08/30 02:30:43;;;;;;;0.70;0.68;;;;;;;;;;5093452;28;20412;-80
2023/08/30 02:33:09;;;;;;;0.30;0.30;;;;;;;;;;5086108;28;20063;-80
2023/08/30 02:35:35;;;;;;;0.20;0.10;;;;;;;;;;5077834;28;20040;-80
2023/08/30 02:38:04;;;;;;;0.20;0.20;;;;;;;;;;5075181;28;20048;-79
2023/08/30 02:40:31;;;;;;;0.28;0.20;;;;;;;;;;5075250;28;20043;-79
2023/08/30 02:42:57;;;;;;;0.40;0.30;;;;;;;;;;5042934;28;20065;-80
2023/08/30 02:45:23;;;;;;;0.20;0.10;;;;;;;;;;5054794;28;20044;-80
2023/08/30 02:47:49;;;;;;;0.20;0.17;;;;;;;;;;5075479;28;20093;-79
2023/08/30 02:50:15;;;;;;;0.20;0.10;;;;;;;;;;5059701;28;20044;-80
2023/08/30 02:52:41;;;;;;;0.20;0.10;;;;;;;;;;5068189;28;20394;-80
2023/08/30 02:55:08;;;;;;;0.50;0.32;;;;;;;;;;5074515;28;20035;-80
2023/08/30 02:57:34;;;;;;;0.40;0.40;;;;;;;;;;5044490;28;20046;-80
2023/08/30 03:00:00;;;;;;;0.20;0.10;;;;;;;;;;5075153;28;20040;-80
2023/08/30 03:02:26;;;;;;;0.47;0.47;;;;;;;;;;5071497;28;20039;-79
2023/08/30 03:04:52;;;;;;;0.20;0.10;;;;;;;;;;5034602;28;20454;-79
2023/08/30 03:07:18;;;;;;;0.85;0.30;;;;;;;;;;5064863;28;20090;-80
2023/08/30 03:09:44;;;;;;;0.20;0.10;;;;;;;;;;5070231;28;20031;-80
2023/08/30 03:12:10;;;;;;;0.20;0.10;;;;;;;;;;5053609;28;20058;-79
2023/08/30 03:14:36;;;;;;;0.20;0.20;;;;;;;;;;5076906;28;20497;-80
2023/08/30 03:17:02;;;;;;;0.20;0.10;;;;;;;;;;5076711;28;20512;-80
2023/08/30 03:19:28;;;;;;;0.45;0.30;;;;;;;;;;5076109;28;20032;-81
2023/08/30 03:21:54;;;;;;;0.43;0.22;;;;;;;;;;5043082;28;20063;-81
2023/08/30 03:24:20;;;;;;;0.85;0.85;;;;;;;;;;5052462;28;20036;-80
2023/08/30 03:26:46;;;;;;;0.20;0.10;;;;;;;;;;5053517;28;20292;-80
2023/08/30 03:29:12;;;;;;;0.20;0.10;;;;;;;;;;5074788;28;20480;-79
2023/08/30 03:31:38;;;;;;;0.43;0.30;;;;;;;;;;5054748;28;20062;-80
2023/08/30 03:34:04;;;;;;;0.20;0.10;;;;;;;;;;5076822;28;20035;-80
2023/08/30 03:36:30;;;;;;;0.28;0.25;;;;;;;;;;5077609;28;20044;-81
2023/08/30 03:38:56;;;;;;;0.30;0.20;;;;;;;;;;5077852;28;20225;-81
2023/08/30 03:41:23;;;;;;;0.20;0.08;;;;;;;;;;5061042;28;20059;-80
2023/08/30 03:43:49;;;;;;;0.85;0.57;;;;;;;;;;5042889;28;20036;-81
2023/08/30 03:46:15;;;;;;;0.20;0.05;;;;;;;;;;5040307;28;20037;-80
2023/08/30 03:48:41;;;;;;;0.20;0.10;;;;;;;;;;5035536;28;20405;-81
2023/08/30 03:51:07;;;;;;;0.20;0.10;;;;;;;;;;5073526;28;20050;-80
2023/08/30 03:53:33;;;;;;;0.25;0.25;;;;;;;;;;5060716;28;20419;-80
2023/08/30 03:55:59;;;;;;;0.20;0.10;;;;;;;;;;5040773;28;20039;-81
2023/08/30 03:58:25;;;;;;;0.57;0.50;;;;;;;;;;5040375;28;20036;-81
2023/08/30 04:00:51;;;;;;;2.00;0.32;;;;;;;;;;5074529;28;20127;-81
2023/08/30 04:03:17;;;;;;;0.20;0.15;;;;;;;;;;5075147;28;20423;-81
2023/08/30 04:05:44;;;;;;;0.20;0.20;;;;;;;;;;5070196;28;20099;-81
2023/08/30 04:08:10;;;;;;;0.20;0.10;;;;;;;;;;5035888;28;20152;-80
2023/08/30 04:10:40;;;;;;;0.50;0.38;;;;;;;;;;5042226;28;20371;-80
2023/08/30 04:13:07;;;;;;;0.57;0.32;;;;;;;;;;5041034;28;20258;-81
2023/08/30 04:15:34;;;;;;;0.20;0.13;;;;;;;;;;5072362;28;20118;-80
2023/08/30 04:18:00;;;;;;;0.35;0.35;;;;;;;;;;5058038;28;20400;-80
2023/08/30 04:20:26;;;;;;;0.20;0.00;;;;;;;;;;5073283;28;20039;-80
2023/08/30 04:22:54;;;;;;;0.40;0.40;;;;;;;;;;5057791;28;20043;-80
2023/08/30 04:25:20;;;;;;;0.20;0.10;;;;;;;;;;5040480;28;20058;-80
2023/08/30 04:27:47;;;;;;;0.20;0.03;;;;;;;;;;5047145;28;20043;-81
2023/08/30 04:30:13;;;;;;;0.30;0.25;;;;;;;;;;5070908;28;20044;-80
2023/08/30 04:32:39;;;;;;;0.20;0.05;;;;;;;;;;5075075;28;20582;-80
2023/08/30 04:35:06;;;;;;;0.25;0.25;;;;;;;;;;5042169;28;20044;-80
2023/08/30 04:37:32;;;;;;;0.85;0.40;;;;;;;;;;5046389;28;20469;-80
2023/08/30 04:39:58;;;;;;;0.20;0.10;;;;;;;;;;5074738;28;22018;-80
2023/08/30 04:42:24;;;;;;;0.20;0.10;;;;;;;;;;5040703;28;20090;-80
2023/08/30 04:44:51;;;;;;;0.30;0.30;;;;;;;;;;5056657;28;20384;-80
2023/08/30 04:47:17;;;;;;;0.32;0.32;;;;;;;;;;5056721;28;20063;-81
2023/08/30 04:49:43;;;;;;;0.20;0.10;;;;;;;;;;5053752;28;20044;-81
2023/08/30 04:52:09;;;;;;;0.20;0.10;;;;;;;;;;5042025;28;20036;-81
2023/08/30 04:54:35;;;;;;;0.20;0.13;;;;;;;;;;5041517;28;20943;-81
2023/08/30 04:57:02;;;;;;;0.85;0.70;;;;;;;;;;5045171;28;20175;-81
2023/08/30 04:59:28;;;;;;;0.28;0.28;;;;;;;;;;5068511;28;20080;-81
2023/08/30 05:01:54;;;;;;;0.55;0.30;;;;;;;;;;5078431;28;20123;-81
2023/08/30 05:04:20;;;;;;;0.20;0.10;;;;;;;;;;5071613;28;20051;-82
2023/08/30 05:06:46;;;;;;;0.45;0.45;;;;;;;;;;5070369;28;20040;-81
2023/08/30 05:09:12;;;;;;;0.30;0.20;;;;;;;;;;5072374;28;20447;-82
2023/08/30 05:11:38;;;;;;;0.55;0.40;;;;;;;;;;5038656;28;20046;-84
2023/08/30 05:14:04;;;;;;;0.20;0.10;;;;;;;;;;5071993;28;20040;-84
2023/08/30 05:16:30;;;;;;;0.30;0.30;;;;;;;;;;5048821;28;20064;-81
2023/08/30 05:18:56;;;;;;;0.32;0.30;;;;;;;;;;5071518;28;20488;-82
2023/08/30 05:21:22;;;;;;;0.30;0.10;;;;;;;;;;5037149;28;20129;-84
2023/08/30 05:23:48;;;;;;;0.22;0.22;;;;;;;;;;5052961;28;20067;-83
2023/08/30 05:26:16;;;;;;;0.20;0.15;;;;;;;;;;5073397;28;20036;-83
2023/08/30 05:28:43;;;;;;;0.20;0.10;;;;;;;;;;5052539;28;20038;-83
2023/08/30 05:31:09;;;;;;;0.30;0.20;;;;;;;;;;5042643;28;20461;-86
2023/08/30 05:33:35;;;;;;;0.20;0.10;;;;;;;;;;5050160;28;20052;-85
2023/08/30 05:36:02;;;;;;;0.20;0.20;;;;;;;;;;5063724;28;20051;-85
2023/08/30 05:38:28;;;;;;;0.40;0.30;;;;;;;;;;5074343;28;20093;-82
2023/08/30 05:40:54;;;;;;;0.20;0.10;;;;;;;;;;5046328;28;20043;-83
2023/08/30 05:43:20;;;;;;;0.20;0.10;;;;;;;;;;5065010;28;20042;-82
2023/08/30 05:45:46;;;;;;;0.20;0.10;;;;;;;;;;5043835;28;20071;-86
2023/08/30 05:48:12;;;;;;;0.20;0.10;;;;;;;;;;5066872;28;20374;-83
2023/08/30 05:50:39;;;;;;;0.20;0.10;;;;;;;;;;5063242;28;20035;-84
2023/08/30 05:53:05;;;;;;;0.20;0.20;;;;;;;;;;5068321;28;20064;-82
2023/08/30 05:55:31;;;;;;;0.20;0.20;;;;;;;;;;5050444;28;20407;-81
2023/08/30 05:57:57;;;;;;;0.20;0.10;;;;;;;;;;5051166;28;20416;-82
2023/08/30 06:00:25;;;;;;;0.38;0.30;;;;;;;;;;5047374;28;20441;-82
2023/08/30 06:02:51;;;;;;;0.22;0.20;;;;;;;;;;5073355;28;20044;-84
2023/08/30 06:05:18;;;;;;;0.30;0.30;;;;;;;;;;5056233;28;20212;-82
2023/08/30 06:07:44;;;;;;;0.20;0.15;;;;;;;;;;5035578;28;20041;-83
2023/08/30 06:10:10;;;;;;;0.30;0.20;;;;;;;;;;5069851;28;20043;-85
2023/08/30 06:12:36;;;;;;;0.38;0.22;;;;;;;;;;5048745;28;20064;-82
2023/08/30 06:15:03;;;;;;;0.20;0.10;;;;;;;;;;5056591;28;20518;-84
2023/08/30 06:17:29;;;;;;;0.20;0.10;;;;;;;;;;5056839;28;20071;-85
2023/08/30 06:19:56;;;;;;;0.38;0.25;;;;;;;;;;5054994;28;20346;-84
2023/08/30 06:22:22;;;;;;;0.30;0.30;;;;;;;;;;5056885;28;20040;-85
2023/08/30 06:24:48;;;;;;;0.20;0.10;;;;;;;;;;5057910;28;20127;-84
2023/08/30 06:27:14;;;;;;;0.20;0.10;;;;;;;;;;5059270;28;20036;-83
2023/08/30 06:29:40;;;;;;;0.20;0.10;;;;;;;;;;5082156;28;20043;-83
2023/08/30 06:32:06;;;;;;;0.52;0.22;;;;;;;;;;5061594;28;20047;-85
2023/08/30 06:34:32;;;;;;;0.20;0.00;;;;;;;;;;5050393;28;20069;-83
2023/08/30 06:36:58;;;;;;;0.65;0.65;;;;;;;;;;5074360;28;20065;-83
2023/08/30 06:39:25;;;;;;;0.28;0.25;;;;;;;;;;5078447;28;20057;-84
2023/08/30 06:41:51;;;;;;;0.20;0.10;;;;;;;;;;5077242;28;20518;-85
2023/08/30 06:44:17;;;;;;;0.20;0.10;;;;;;;;;;5054742;28;20042;-82
2023/08/30 06:46:43;;;;;;;0.20;0.08;;;;;;;;;;5039756;28;20032;-82
2023/08/30 06:49:12;;;;;;;0.20;0.15;;;;;;;;;;5044049;28;20047;-86
2023/08/30 06:51:38;;;;;;;0.28;0.28;;;;;;;;;;5048327;28;20105;-83
2023/08/30 06:54:04;;;;;;;0.20;0.20;;;;;;;;;;5051856;28;20040;-85
2023/08/30 06:56:30;;;;;;;0.20;0.13;;;;;;;;;;5076995;28;20031;-84
2023/08/30 06:58:56;;;;;;;0.20;0.10;;;;;;;;;;5048696;28;20040;-82
2023/08/30 07:01:22;;;;;;;0.20;0.05;;;;;;;;;;5067318;28;20146;-82
2023/08/30 07:03:48;;;;;;;0.20;0.20;;;;;;;;;;5072504;28;20037;-83
2023/08/30 07:06:14;;;;;;;0.93;0.20;;;;;;;;;;5074135;28;20028;-84
2023/08/30 07:08:40;;;;;;;0.30;0.30;;;;;;;;;;5052353;28;20028;-81
2023/08/30 07:11:06;;;;;;;0.28;0.15;;;;;;;;;;5068403;28;20143;-81
2023/08/30 07:13:32;;;;;;;1.00;0.80;;;;;;;;;;5044261;28;20060;-81
2023/08/30 07:15:58;;;;;;;0.20;0.10;;;;;;;;;;5043030;28;20037;-83
2023/08/30 07:18:24;;;;;;;0.20;0.20;;;;;;;;;;5070320;28;20449;-81
2023/08/30 07:20:50;;;;;;;1.50;0.47;;;;;;;;;;5075362;28;20035;-82
2023/08/30 07:23:16;;;;;;;0.20;0.10;;;;;;;;;;5043585;28;20614;-84
2023/08/30 07:25:42;;;;;;;0.20;0.08;;;;;;;;;;5060303;28;20036;-83
2023/08/30 07:28:08;;;;;;;0.20;0.20;;;;;;;;;;5056046;28;20032;-82
2023/08/30 07:30:35;;;;;;;0.20;0.10;;;;;;;;;;5082583;28;20410;-82
2023/08/30 07:33:01;;;;;;;0.20;0.10;;;;;;;;;;5051431;28;20315;-87
2023/08/30 07:35:27;;;;;;;0.20;0.15;;;;;;;;;;5055691;28;20040;-82
2023/08/30 07:37:53;;;;;;;0.20;0.10;;;;;;;;;;5077003;28;20173;-83
2023/08/30 07:40:20;;;;;;;0.47;0.40;;;;;;;;;;5060594;28;20049;-85
2023/08/30 07:42:46;;;;;;;0.20;0.00;;;;;;;;;;5072399;28;20044;-85
2023/08/30 07:45:13;;;;;;;0.20;0.10;;;;;;;;;;5077392;28;20040;-85
2023/08/30 07:47:39;;;;;;;1.95;0.28;;;;;;;;;;5068597;28;20450;-83
2023/08/30 07:50:06;;;;;;;0.20;0.10;;;;;;;;;;5051026;28;20042;-83
2023/08/30 07:52:32;;;;;;;0.20;0.20;;;;;;;;;;5078538;28;20083;-81
2023/08/30 07:54:58;;;;;;;0.68;0.40;;;;;;;;;;5061114;28;20071;-84
2023/08/30 07:57:24;;;;;;;0.30;0.25;;;;;;;;;;5033216;28;20076;-82
2023/08/30 07:59:50;;;;;;;0.20;0.10;;;;;;;;;;5070775;28;20042;-84
2023/08/30 08:02:16;;;;;;;0.20;0.20;;;;;;;;;;5050945;28;20039;-81
2023/08/30 08:04:42;;;;;;;0.20;0.10;;;;;;;;;;5072366;28;20036;-83
2023/08/30 08:07:08;;;;;;;0.20;0.10;;;;;;;;;;5065557;28;20049;-82
2023/08/30 08:09:34;;;;;;;0.60;0.40;;;;;;;;;;5068123;28;20047;-82
2023/08/30 08:12:00;;;;;;;0.30;0.20;;;;;;;;;;5060731;28;20416;-84
2023/08/30 08:14:26;;;;;;;0.75;0.28;;;;;;;;;;5071297;28;20043;-85
2023/08/30 08:16:52;;;;;;;0.30;0.10;;;;;;;;;;5063175;28;20492;-84
2023/08/30 08:19:20;;;;;;;0.38;0.38;;;;;;;;;;5049358;28;20092;-88
2023/08/30 08:21:46;;;;;;;0.28;0.17;;;;;;;;;;5057338;28;20445;-85
2023/08/30 08:24:14;;;;;;;0.35;0.30;;;;;;;;;;5061075;23;20045;-87
2023/08/30 08:26:40;;;;;;;0.25;0.10;;;;;;;;;;5024759;28;20033;-87
2023/08/30 08:29:06;;;;;;;0.20;0.10;;;;;;;;;;5025702;28;20079;-85
2023/08/30 08:31:36;;;;;;;0.30;0.25;;;;;;;;;;5030399;28;20040;-85
2023/08/30 08:34:15;;;;;;;0.57;0.38;;;;;;;;;;5025918;28;20083;-88
2023/08/30 08:36:50;;;;;;;0.20;0.03;;;;;;;;;;5031105;28;20525;-92
2023/08/30 08:39:16;;;;;;;0.20;0.17;;;;;;;;;;5027380;28;20051;-88
2023/08/30 08:41:43;;;;;;;0.30;0.30;;;;;;;;;;5029187;28;20520;-87
2023/08/30 08:44:12;;;;;;;0.20;0.10;;;;;;;;;;5020391;28;20044;-87
2023/08/30 08:46:54;;;;;;;0.20;0.10;;;;;;;;;;5039369;28;20044;-87
2023/08/30 08:49:20;;;;;;;0.82;0.40;;;;;;;;;;5024601;28;20317;-86
2023/08/30 08:51:46;;;;;;;0.52;0.43;;;;;;;;;;5042707;28;20044;-86
2023/08/30 08:54:16;;;;;;;0.20;0.05;;;;;;;;;;5025431;28;20094;-87
2023/08/30 08:56:49;;;;;;;0.75;0.40;;;;;;;;;;5029301;28;20042;-88
2023/08/30 08:59:15;;;;;;;0.30;0.30;;;;;;;;;;5033457;28;20104;-87
2023/08/30 09:01:44;;;;;;;1.98;0.45;;;;;;;;;;5048216;28;20530;-85
2023/08/30 09:04:11;;;;;;;0.20;0.10;;;;;;;;;;5041161;28;20036;-86
2023/08/30 09:06:37;;;;;;;1.08;0.38;;;;;;;;;;5046172;28;20063;-87
2023/08/30 09:09:04;;;;;;;0.35;0.32;;;;;;;;;;5025202;28;20107;-89
2023/08/30 09:11:33;;;;;;;0.22;0.22;;;;;;;;;;5030954;28;20043;-88
2023/08/30 09:13:59;;;;;;;0.20;0.08;;;;;;;;;;5040931;28;20088;-86
2023/08/30 09:16:31;;;;;;;0.20;0.10;;;;;;;;;;5042921;28;20076;-88
2023/08/30 09:19:10;;;;;;;0.20;0.13;;;;;;;;;;5037480;28;20037;-89
2023/08/30 09:21:36;;;;;;;0.35;0.30;;;;;;;;;;5030469;28;20336;-88
2023/08/30 09:24:27;;;;;;;0.20;0.20;;;;;;;;;;5033230;28;20083;-89
2023/08/30 09:27:11;;;;;;;0.45;0.45;;;;;;;;;;5020385;28;20566;-86
2023/08/30 09:29:59;;;;;;;0.30;0.20;;;;;;;;;;5013168;28;20071;-87
2023/08/30 09:32:42;;;;;;;0.20;0.10;;;;;;;;;;5035679;28;20048;-90
2023/08/30 09:35:14;;;;;;;0.20;0.10;;;;;;;;;;5024408;28;20040;-88
2023/08/30 09:37:43;;;;;;;;;;;;;;;;;;5029946;28;20089;-88
2023/08/30 09:40:28;;;;;;;0.20;0.10;;;;;;;;;;5030567;28;19975;-87
2023/08/30 09:43:21;;;;;;;0.30;0.20;;;;;;;;;;5020830;28;20035;-88
2023/08/30 09:45:45;;;;;;;0.40;0.40;;;;;;;;;;5045753;28;21139;-86
2023/08/30 09:48:11;;;;;;;0.20;0.20;;;;;;;;;;5033164;28;20400;-87
2023/08/30 09:50:45;;;;;;;0.55;0.55;;;;;;;;;;5016101;28;20408;-88
2023/08/30 09:53:14;;;;;;;0.20;0.10;;;;;;;;;;5030728;28;20527;-87
2023/08/30 09:55:41;;;;;;;0.20;0.10;;;;;;;;;;5022846;28;20096;-88
2023/08/30 09:58:27;;;;;;;0.28;0.17;;;;;;;;;;5025333;28;20040;-88
2023/08/30 10:00:54;;;;;;;0.68;0.43;;;;;;;;;;5019349;28;20414;-86
2023/08/30 10:03:23;;;;;;;0.40;0.30;;;;;;;;;;5034050;28;20315;-87
2023/08/30 10:05:49;;;;;;;0.20;0.15;;;;;;;;;;5028654;28;20075;-88
2023/08/30 10:08:15;;;;;;;0.28;0.03;;;;;;;;;;5023290;28;20064;-86
2023/08/30 10:10:43;;;;;;;0.20;0.10;;;;;;;;;;5024914;28;20048;-87
2023/08/30 10:13:13;;;;;;;0.55;0.22;;;;;;;;;;5025637;28;20098;-86
2023/08/30 10:15:41;;;;;;;0.30;0.30;;;;;;;;;;5020188;28;20051;-89
2023/08/30 10:18:20;;;;;;;0.25;0.15;;;;;;;;;;5028196;28;20037;-86
2023/08/30 10:20:54;;;;;;;0.20;0.17;;;;;;;;;;5034917;28;20481;-89
2023/08/30 10:23:21;;;;;;;0.20;0.10;;;;;;;;;;5021801;28;20094;-85
2023/08/30 10:25:52;;;;;;;0.20;0.10;;;;;;;;;;5021699;28;20443;-87
2023/08/30 10:28:19;;;;;;;0.20;0.10;;;;;;;;;;5025756;28;20115;-87
2023/08/30 10:30:45;;;;;;;2.85;0.98;;;;;;;;;;5032571;28;20040;-88
2023/08/30 10:33:16;;;;;;;0.80;0.30;;;;;;;;;;5016443;28;20036;-86
2023/08/30 10:35:49;;;;;;;0.20;0.10;;;;;;;;;;5044131;28;20420;-85
2023/08/30 10:38:25;;;;;;;0.30;0.25;;;;;;;;;;5032232;28;20429;-86
2023/08/30 10:40:51;;;;;;;0.20;0.15;;;;;;;;;;5048023;28;20047;-86
2023/08/30 10:43:29;;;;;;;0.20;0.20;;;;;;;;;;5025765;28;20045;-87
2023/08/30 10:49:18;;;;;;;0.20;0.20;;;;;;;;;;5046676;28;20044;-87
2023/08/30 10:51:51;;;;;;;0.20;0.10;;;;;;;;;;5032539;28;20051;-87
2023/08/30 10:54:26;;;;;;;0.20;0.10;;;;;;;;;;5021174;28;20086;-87
2023/08/30 10:57:03;;;;;;;0.22;0.13;;;;;;;;;;5030995;28;20055;-90
2023/08/30 10:59:40;;;;;;;0.20;0.20;;;;;;;;;;5023520;28;20048;-87
2023/08/30 11:02:07;;;;;;;0.25;0.10;;;;;;;;;;5018870;28;20052;-86
2023/08/30 11:04:58;;;;;;;0.20;0.10;;;;;;;;;;5023732;28;20048;-88
2023/08/30 11:07:25;;;;;;;0.20;0.05;;;;;;;;;;5043464;28;20044;-86
2023/08/30 11:09:58;;;;;;;0.20;0.10;;;;;;;;;;5022757;28;20412;-89
2023/08/30 11:12:36;;;;;;;;;;;;;;;;;;5034001;28;20064;-87
2023/08/30 11:15:02;;;;;;;0.20;0.10;;;;;;;;;;5027098;28;19920;-85
2023/08/30 11:17:31;;;;;;;0.20;0.10;;;;;;;;;;5024885;28;20123;-88
2023/08/30 11:20:19;;;;;;;0.22;0.20;;;;;;;;;;5045112;28;20086;-89
2023/08/30 11:22:47;;;;;;;0.20;0.10;;;;;;;;;;5044830;28;20036;-86
2023/08/30 11:25:45;;;;;;;0.32;0.30;;;;;;;;;;5021620;28;20076;-89
2023/08/30 11:28:11;;;;;;;0.50;0.50;;;;;;;;;;5019063;28;20447;-86
2023/08/30 11:30:52;;;;;;;0.20;0.10;;;;;;;;;;5010105;28;20156;-87
2023/08/30 11:33:29;;;;;;;0.20;0.10;;;;;;;;;;5045092;28;20155;-89
2023/08/30 11:36:06;;;;;;;0.20;0.10;;;;;;;;;;5044618;28;20036;-88
2023/08/30 11:38:48;;;;;;;0.20;0.20;;;;;;;;;;5023006;28;20045;-89
2023/08/30 11:41:40;;;;;;;1.38;0.22;;;;;;;;;;5017035;28;20063;-89
2023/08/30 11:44:12;;;;;;;0.20;0.10;;;;;;;;;;5024884;28;20044;-88
2023/08/30 11:46:38;;;;;;;;;;;;;;;;;;5023301;28;20300;-87
2023/08/30 11:49:08;;;;;;;0.20;0.10;;;;;;;;;;5019195;28;20006;-87
2023/08/30 11:51:34;;;;;;;0.20;0.10;;;;;;;;;;5030805;28;20048;-87
2023/08/30 11:54:09;;;;;;;0.20;0.10;;;;;;;;;;5046347;28;20472;-87
2023/08/30 11:56:41;;;;;;;0.47;0.20;;;;;;;;;;5027370;28;20174;-87
2023/08/30 11:59:31;;;;;;;0.20;0.10;;;;;;;;;;5017040;28;20063;-86
2023/08/30 12:02:06;;;;;;;0.20;0.10;;;;;;;;;;5042729;28;20047;-87
2023/08/30 12:04:53;;;;;;;0.20;0.10;;;;;;;;;;5013697;28;20181;-87
2023/08/30 12:11:33;;;;;;;;;;;;;;;;;;;;;
2023/08/30 12:14:38;;;;;;;0.20;0.10;;;;;;;;;;4976038;28;20048;-87
2023/08/30 12:24:35;;;;;;;0.30;0.30;;;;;;;;;;4950171;28;20054;-89
2023/08/30 12:27:42;;;;;;;0.20;0.10;;;;;;;;;;4937103;28;20567;-89
2023/08/30 12:34:04;;;;;;;0.63;0.22;;;;;;;;;;4878755;29;20204;-90
2023/08/30 14:21:39;;;;;;;0.20;0.10;;;;;;;;;;4953628;28;20102;-84
2023/08/30 14:24:05;;;;;;;0.20;0.10;;;;;;;;;;4964159;23;20039;-83
2023/08/30 14:26:31;;;;;;;0.20;0.10;;;;;;;;;;4984559;28;20090;-84
2023/08/30 14:28:57;;;;;;;0.20;0.10;;;;;;;;;;4994018;28;20077;-83
2023/08/30 14:31:26;;;;;;;0.30;0.10;;;;;;;;;;5003150;28;20021;-82
2023/08/30 14:33:54;;;;;;;0.20;0.10;;;;;;;;;;4983758;28;20060;-80
2023/08/30 14:36:20;;;;;;;0.40;0.30;;;;;;;;;;4983290;28;20128;-81
2023/08/30 14:38:46;;;;;;;0.20;0.10;;;;;;;;;;4984706;28;20096;-82
2023/08/30 14:41:15;;;;;;;0.20;0.00;;;;;;;;;;4981512;28;20304;-81
2023/08/30 14:43:41;;;;;;;0.20;0.10;;;;;;;;;;4984623;28;20432;-81
2023/08/30 14:46:07;;;;;;;0.30;0.15;;;;;;;;;;4979359;28;20041;-81
2023/08/30 14:48:34;;;;;;;0.20;0.10;;;;;;;;;;4978612;28;20072;-82
2023/08/30 14:51:00;;;;;;;0.20;0.10;;;;;;;;;;4977430;28;20117;-81
2023/08/30 14:53:26;;;;;;;0.20;0.10;;;;;;;;;;4967055;28;20521;-81
2023/08/30 14:55:53;;;;;;;0.20;0.10;;;;;;;;;;4980771;28;20113;-81
2023/08/30 14:58:19;;;;;;;0.20;0.10;;;;;;;;;;4969623;28;20058;-82
2023/08/30 15:00:48;;;;;;;0.20;0.20;;;;;;;;;;4984272;28;20105;-80
2023/08/30 15:03:14;;;;;;;0.20;0.10;;;;;;;;;;4996775;28;20114;-81
2023/08/30 15:05:40;;;;;;;0.20;0.10;;;;;;;;;;4985305;28;20069;-81
2023/08/30 15:08:06;;;;;;;0.20;0.00;;;;;;;;;;4984651;28;20492;-81
2023/08/30 15:10:32;;;;;;;0.20;0.03;;;;;;;;;;4978599;28;20086;-80
2023/08/30 15:12:58;;;;;;;0.20;0.00;;;;;;;;;;4963626;28;20065;-81
2023/08/30 15:15:24;;;;;;;0.20;0.10;;;;;;;;;;4977735;28;20859;-80
2023/08/30 15:17:50;;;;;;;0.20;0.13;;;;;;;;;;4970033;28;20042;-80
2023/08/30 15:20:16;;;;;;;0.20;0.10;;;;;;;;;;4977627;28;20042;-79
2023/08/30 15:22:43;;;;;;;0.20;0.08;;;;;;;;;;4973358;28;20042;-80
2023/08/30 15:25:09;;;;;;;0.20;0.10;;;;;;;;;;4982787;28;20060;-79
2023/08/30 15:27:35;;;;;;;0.20;0.00;;;;;;;;;;4992947;28;20058;-80
2023/08/30 15:30:01;;;;;;;0.20;0.05;;;;;;;;;;4987250;28;20643;-79
2023/08/30 15:32:28;;;;;;;0.20;0.10;;;;;;;;;;4987154;28;20046;-78
2023/08/30 15:34:54;;;;;;;0.20;0.10;;;;;;;;;;4990516;28;20113;-79
2023/08/30 15:37:20;;;;;;;0.20;0.15;;;;;;;;;;5005624;28;21151;-79
2023/08/30 15:39:47;;;;;;;0.20;0.10;;;;;;;;;;5011154;28;20038;-79
2023/08/30 15:42:13;;;;;;;0.20;0.20;;;;;;;;;;4995600;28;20044;-79
2023/08/30 15:44:39;;;;;;;0.20;0.00;;;;;;;;;;4979223;28;20050;-79
2023/08/30 15:47:05;;;;;;;0.20;0.10;;;;;;;;;;4993364;28;20051;-81
2023/08/30 15:49:31;;;;;;;0.20;0.00;;;;;;;;;;4991581;28;20434;-79
2023/08/30 15:51:57;;;;;;;0.20;0.00;;;;;;;;;;4990782;28;20508;-78
2023/08/30 15:54:23;;;;;;;0.20;0.03;;;;;;;;;;4989602;28;20092;-80
2023/08/30 15:56:49;;;;;;;0.20;0.10;;;;;;;;;;4989146;28;20046;-80
2023/08/30 15:59:15;;;;;;;0.20;0.10;;;;;;;;;;4978919;28;20344;-79
2023/08/30 16:01:41;;;;;;;0.20;0.10;;;;;;;;;;4983694;28;20034;-78
2023/08/30 16:04:08;;;;;;;0.20;0.10;;;;;;;;;;4991347;28;20565;-78
2023/08/30 16:06:34;;;;;;;0.20;0.10;;;;;;;;;;4985831;28;20049;-80
2023/08/30 16:09:00;;;;;;;0.20;0.00;;;;;;;;;;4993993;28;20034;-80
2023/08/30 16:11:26;;;;;;;0.20;0.10;;;;;;;;;;4991650;28;20034;-78
2023/08/30 16:13:52;;;;;;;0.20;0.10;;;;;;;;;;4997652;28;20099;-79
2023/08/30 16:16:18;;;;;;;0.20;0.10;;;;;;;;;;4987684;28;20467;-80
2023/08/30 16:18:44;;;;;;;0.20;0.10;;;;;;;;;;4981709;28;20069;-80
2023/08/30 16:21:10;;;;;;;0.20;0.10;;;;;;;;;;4991143;28;20034;-79
2023/08/30 16:23:36;;;;;;;0.73;0.30;;;;;;;;;;4988017;28;20066;-79
2023/08/30 16:26:03;;;;;;;0.20;0.00;;;;;;;;;;4982657;28;20125;-80
2023/08/30 16:28:29;;;;;;;0.20;0.10;;;;;;;;;;4989677;28;20034;-80
2023/08/30 16:31:05;;;;;;;0.20;0.10;;;;;;;;;;4990609;28;20050;-81
2023/08/30 16:33:31;;;;;;;0.20;0.03;;;;;;;;;;4983750;28;20042;-80
2023/08/30 16:35:58;;;;;;;0.20;0.05;;;;;;;;;;4972541;28;20128;-80
2023/08/30 16:38:25;;;;;;;0.20;0.10;;;;;;;;;;4995697;28;20041;-81
2023/08/30 16:40:51;;;;;;;0.20;0.10;;;;;;;;;;4992341;28;20042;-81
2023/08/30 16:43:17;;;;;;;0.20;0.10;;;;;;;;;;4994485;28;20057;-81
2023/08/30 16:45:43;;;;;;;0.20;0.10;;;;;;;;;;4996341;28;20045;-81
2023/08/30 16:48:12;;;;;;;0.20;0.10;;;;;;;;;;4998547;28;20042;-81
2023/08/30 16:50:38;;;;;;;0.20;0.10;;;;;;;;;;4985275;28;20033;-82
2023/08/30 16:53:10;;;;;;;0.20;0.10;;;;;;;;;;4993826;28;20461;-82
2023/08/30 16:55:36;;;;;;;0.20;0.10;;;;;;;;;;4998298;28;20038;-82
2023/08/30 16:58:02;;;;;;;0.20;0.00;;;;;;;;;;5000475;28;20751;-82
2023/08/30 17:00:28;;;;;;;0.20;0.10;;;;;;;;;;4992466;28;20065;-81
2023/08/30 17:02:54;;;;;;;0.20;0.10;;;;;;;;;;4995211;28;20042;-81
2023/08/30 17:05:20;;;;;;;0.20;0.05;;;;;;;;;;4995371;28;20038;-81
2023/08/30 17:07:47;;;;;;;0.20;0.10;;;;;;;;;;4996927;28;20042;-81
2023/08/30 17:10:13;;;;;;;0.20;0.10;;;;;;;;;;4978820;28;20428;-83
2023/08/30 17:12:39;;;;;;;0.20;0.08;;;;;;;;;;4985879;28;20038;-81
2023/08/30 17:15:05;;;;;;;0.20;0.10;;;;;;;;;;4978116;28;20045;-82
2023/08/30 17:17:32;;;;;;;0.20;0.10;;;;;;;;;;4990022;28;20648;-82
2023/08/30 17:19:58;;;;;;;0.20;0.00;;;;;;;;;;4996656;28;20423;-83
2023/08/30 17:22:24;;;;;;;0.20;0.10;;;;;;;;;;4984867;28;20031;-82
2023/08/30 17:24:50;;;;;;;0.20;0.10;;;;;;;;;;4992077;28;20041;-82
2023/08/30 17:27:16;;;;;;;0.20;0.10;;;;;;;;;;4987086;28;20451;-82
2023/08/30 17:29:42;;;;;;;0.20;0.10;;;;;;;;;;4980484;28;20623;-81
2023/08/30 17:32:08;;;;;;;0.20;0.10;;;;;;;;;;4990216;28;20093;-82
2023/08/30 17:34:34;;;;;;;0.20;0.10;;;;;;;;;;4987028;28;20046;-81
2023/08/30 17:37:03;;;;;;;0.30;0.30;;;;;;;;;;5004971;28;20048;-81
2023/08/30 17:39:30;;;;;;;0.20;0.10;;;;;;;;;;4998451;28;20046;-81
2023/08/30 17:41:57;;;;;;;0.20;0.00;;;;;;;;;;4992168;28;20133;-81
2023/08/30 17:44:23;;;;;;;0.20;0.05;;;;;;;;;;5000606;28;20044;-80
2023/08/30 17:46:49;;;;;;;0.20;0.10;;;;;;;;;;4995175;28;20042;-81
2023/08/30 17:49:16;;;;;;;0.20;0.10;;;;;;;;;;5000847;28;20057;-81
2023/08/30 17:51:42;;;;;;;0.20;0.10;;;;;;;;;;4995140;28;20076;-81
2023/08/30 17:54:09;;;;;;;0.30;0.10;;;;;;;;;;4993444;28;20038;-80
2023/08/30 17:56:36;;;;;;;0.20;0.10;;;;;;;;;;4986366;28;20106;-81
2023/08/30 17:59:02;;;;;;;0.20;0.10;;;;;;;;;;4996460;28;20046;-81
2023/08/30 18:01:29;;;;;;;0.20;0.10;;;;;;;;;;4993505;28;20039;-81
2023/08/30 18:03:55;;;;;;;0.20;0.10;;;;;;;;;;4996047;28;20042;-81
2023/08/30 18:06:22;;;;;;;0.20;0.00;;;;;;;;;;4994582;28;20113;-82
2023/08/30 18:08:49;;;;;;;0.20;0.10;;;;;;;;;;4988383;28;20042;-81
2023/08/30 18:11:22;;;;;;;0.20;0.10;;;;;;;;;;4988105;28;20033;-81
2023/08/30 18:13:49;;;;;;;0.20;0.10;;;;;;;;;;4987198;28;20046;-81
2023/08/30 18:16:18;;;;;;;0.20;0.20;;;;;;;;;;4990515;28;20495;-81
2023/08/30 18:18:44;;;;;;;0.20;0.05;;;;;;;;;;4983039;28;20065;-81
2023/08/30 18:21:10;;;;;;;0.20;0.10;;;;;;;;;;4991044;28;20172;-81
2023/08/30 18:23:40;;;;;;;0.20;0.10;;;;;;;;;;4996490;28;20483;-81
2023/08/30 18:26:06;;;;;;;0.20;0.10;;;;;;;;;;5008399;28;20127;-81
2023/08/30 18:28:32;;;;;;;0.20;0.10;;;;;;;;;;5000277;28;20138;-82